Dannemora, NY (12929)

7:22 AM EST on March 04, 2015 (GMT -0500)
Dannemora | Change Station
CLOSE
Current Station
Personal Weather Station
Location: Saranac, NY
Elevation: 1391 ft
Nearby Weather Stations

Elev 1391 ft 44.72 °N, 73.73 °W | Updated 5 seconds ago

Overcast
Overcast
25.6 °F
Feels Like 10 °F
N
25.1
Wind Variable Wind from West
Gusts 25.1 mph

Today
High -- | Low -- °F
--% Chance of Precip.
Yesterday
High -- | Low -- °F
Precip. -- in
6:27 AM 5:46 PM
Waxing Gibbous, 99% visible
Pressure 29.68 in
Visibility 10.0 miles
Clouds Overcast 3400 ft
Windchill 10 °F
Dew Point 16 °F
Humidity 66%
Rainfall 0.00 in
Snow Depth Not available.
UV 0 out of 12
Pollen .40 out of 12
Air Quality Not available.
Flu Activity Not available.
METAR KPBG 041153Z AUTO VRB03KT 10SM OVC034 02/M04 A2967 RMK AO2 SLP049 60000 T00171044 10017 21028 51028

More Conditions Fewer Conditions

Pressure 29.68 in
Visibility 10.0 miles
Clouds Overcast 3400 ft
Windchill 10 °F
Dew Point 16 °F
Humidity 66%
Rainfall 0.00 in
Snow Depth Not available.
UV 0 out of 12
Pollen .40 out of 12
Air Quality Not available.
Flu Activity Not available.
METAR KPBG 041153Z AUTO VRB03KT 10SM OVC034 02/M04 A2967 RMK AO2 SLP049 60000 T00171044 10017 21028 51028

More Conditions Fewer Conditions

10-Day Weather Forecast

Almanac

Astronomy

Mar. 04, 2015 Rise Set
Actual Time
Civil Twilight
Nautical Twilight
Astronomical Twilight
Moon
Length of Visible Light
Length of Day
Tomorrow will be .
, % of the Moon is Illuminated

Today's Extremes

State Highs State Lows

Community

WunderPhotos

Upload Photos

1,802,438 photos uploaded!

WunderBlogs® & News

Nearby

Air Quality

  Air Quality AQ Index Pollutant
Not available.

Snow Depth

Station Depth Elevation

Earthquake Activity

City Distance Mag. Time & Date
Minimum magnitude displayed is 2.5.

Coastal Water Temperatures

Place Temperature

Nearby Weather Stations